sensor_id;sensor_type;location;lat;lon;timestamp;P1;durP1;ratioP1;P2;durP2;ratioP2
24485;SDS011;13449;49.374;8.584;2022-12-07T00:01:26;48.42;;;16.65;;
24485;SDS011;13449;49.374;8.584;2022-12-07T00:03:57;29.20;;;11.43;;
24485;SDS011;13449;49.374;8.584;2022-12-07T00:06:32;35.33;;;13.40;;
24485;SDS011;13449;49.374;8.584;2022-12-07T00:09:03;26.42;;;12.15;;
24485;SDS011;13449;49.374;8.584;2022-12-07T00:11:31;25.35;;;10.18;;
24485;SDS011;13449;49.374;8.584;2022-12-07T00:13:59;19.20;;;8.30;;
24485;SDS011;13449;49.374;8.584;2022-12-07T00:16:28;22.85;;;7.47;;
24485;SDS011;13449;49.374;8.584;2022-12-07T00:18:56;21.40;;;7.65;;
24485;SDS011;13449;49.374;8.584;2022-12-07T00:21:24;11.90;;;6.32;;
24485;SDS011;13449;49.374;8.584;2022-12-07T00:23:52;10.45;;;5.93;;
24485;SDS011;13449;49.374;8.584;2022-12-07T00:26:21;13.55;;;4.60;;
24485;SDS011;13449;49.374;8.584;2022-12-07T00:28:57;15.30;;;6.20;;
24485;SDS011;13449;49.374;8.584;2022-12-07T00:31:27;21.30;;;7.25;;
24485;SDS011;13449;49.374;8.584;2022-12-07T00:33:56;15.98;;;6.25;;
24485;SDS011;13449;49.374;8.584;2022-12-07T00:36:23;12.27;;;6.03;;
24485;SDS011;13449;49.374;8.584;2022-12-07T00:38:52;19.48;;;5.97;;
24485;SDS011;13449;49.374;8.584;2022-12-07T00:41:21;12.85;;;5.75;;
24485;SDS011;13449;49.374;8.584;2022-12-07T00:43:50;10.27;;;5.65;;
24485;SDS011;13449;49.374;8.584;2022-12-07T00:46:17;12.75;;;5.03;;
24485;SDS011;13449;49.374;8.584;2022-12-07T00:48:45;10.30;;;4.47;;
24485;SDS011;13449;49.374;8.584;2022-12-07T00:51:13;8.82;;;4.30;;
24485;SDS011;13449;49.374;8.584;2022-12-07T00:53:44;12.38;;;5.10;;
24485;SDS011;13449;49.374;8.584;2022-12-07T00:56:13;8.15;;;4.38;;
24485;SDS011;13449;49.374;8.584;2022-12-07T00:58:41;9.95;;;4.35;;
24485;SDS011;13449;49.374;8.584;2022-12-07T01:01:08;8.07;;;3.90;;
24485;SDS011;13449;49.374;8.584;2022-12-07T01:03:36;7.55;;;4.00;;
24485;SDS011;13449;49.374;8.584;2022-12-07T01:06:04;9.93;;;4.28;;
24485;SDS011;13449;49.374;8.584;2022-12-07T01:08:30;8.57;;;4.78;;
24485;SDS011;13449;49.374;8.584;2022-12-07T01:11:01;11.75;;;4.68;;
24485;SDS011;13449;49.374;8.584;2022-12-07T01:13:32;7.18;;;3.83;;
24485;SDS011;13449;49.374;8.584;2022-12-07T01:16:03;11.90;;;4.55;;
24485;SDS011;13449;49.374;8.584;2022-12-07T01:18:31;7.78;;;3.90;;
24485;SDS011;13449;49.374;8.584;2022-12-07T01:21:01;17.27;;;5.88;;
24485;SDS011;13449;49.374;8.584;2022-12-07T01:23:27;9.75;;;4.70;;
24485;SDS011;13449;49.374;8.584;2022-12-07T01:25:58;15.65;;;4.47;;
24485;SDS011;13449;49.374;8.584;2022-12-07T01:28:27;14.48;;;4.97;;
24485;SDS011;13449;49.374;8.584;2022-12-07T01:31:15;9.68;;;4.85;;
24485;SDS011;13449;49.374;8.584;2022-12-07T01:33:44;7.80;;;3.25;;
24485;SDS011;13449;49.374;8.584;2022-12-07T01:36:22;6.07;;;3.22;;
24485;SDS011;13449;49.374;8.584;2022-12-07T01:38:51;6.90;;;3.60;;
24485;SDS011;13449;49.374;8.584;2022-12-07T01:41:23;5.53;;;2.93;;
24485;SDS011;13449;49.374;8.584;2022-12-07T01:46:51;13.63;;;5.10;;
24485;SDS011;13449;49.374;8.584;2022-12-07T01:49:32;10.20;;;4.57;;
24485;SDS011;13449;49.374;8.584;2022-12-07T01:54:32;11.13;;;5.00;;
24485;SDS011;13449;49.374;8.584;2022-12-07T01:57:00;11.73;;;5.15;;
24485;SDS011;13449;49.374;8.584;2022-12-07T01:59:28;10.00;;;4.45;;
24485;SDS011;13449;49.374;8.584;2022-12-07T02:01:55;8.85;;;4.43;;
24485;SDS011;13449;49.374;8.584;2022-12-07T02:04:25;12.25;;;6.05;;
24485;SDS011;13449;49.374;8.584;2022-12-07T02:06:51;8.02;;;4.13;;
24485;SDS011;13449;49.374;8.584;2022-12-07T02:09:19;9.27;;;3.75;;
24485;SDS011;13449;49.374;8.584;2022-12-07T02:11:48;10.13;;;5.03;;
24485;SDS011;13449;49.374;8.584;2022-12-07T02:14:15;9.80;;;5.18;;
24485;SDS011;13449;49.374;8.584;2022-12-07T02:20:00;9.23;;;5.55;;
24485;SDS011;13449;49.374;8.584;2022-12-07T02:22:46;9.55;;;4.68;;
24485;SDS011;13449;49.374;8.584;2022-12-07T02:30:53;13.55;;;6.85;;
24485;SDS011;13449;49.374;8.584;2022-12-07T02:33:26;13.35;;;6.28;;
24485;SDS011;13449;49.374;8.584;2022-12-07T02:38:32;18.05;;;6.43;;
24485;SDS011;13449;49.374;8.584;2022-12-07T02:41:04;16.23;;;7.57;;
24485;SDS011;13449;49.374;8.584;2022-12-07T02:43:46;10.98;;;4.68;;
24485;SDS011;13449;49.374;8.584;2022-12-07T02:46:23;13.18;;;6.32;;
24485;SDS011;13449;49.374;8.584;2022-12-07T02:48:54;10.32;;;5.28;;
24485;SDS011;13449;49.374;8.584;2022-12-07T02:51:21;10.93;;;5.35;;
24485;SDS011;13449;49.374;8.584;2022-12-07T02:53:51;7.88;;;4.50;;
24485;SDS011;13449;49.374;8.584;2022-12-07T02:56:26;12.75;;;5.95;;
24485;SDS011;13449;49.374;8.584;2022-12-07T03:02:11;10.02;;;5.32;;
24485;SDS011;13449;49.374;8.584;2022-12-07T03:04:51;12.65;;;5.47;;
24485;SDS011;13449;49.374;8.584;2022-12-07T03:12:45;8.88;;;4.47;;
24485;SDS011;13449;49.374;8.584;2022-12-07T03:15:21;13.68;;;4.65;;
24485;SDS011;13449;49.374;8.584;2022-12-07T03:17:55;12.35;;;5.65;;
24485;SDS011;13449;49.374;8.584;2022-12-07T03:20:24;10.07;;;4.82;;
24485;SDS011;13449;49.374;8.584;2022-12-07T03:22:52;10.38;;;4.72;;
24485;SDS011;13449;49.374;8.584;2022-12-07T03:25:22;8.35;;;4.10;;
24485;SDS011;13449;49.374;8.584;2022-12-07T03:27:54;7.68;;;3.75;;
24485;SDS011;13449;49.374;8.584;2022-12-07T03:30:56;6.97;;;4.60;;
24485;SDS011;13449;49.374;8.584;2022-12-07T03:33:49;11.57;;;4.60;;
24485;SDS011;13449;49.374;8.584;2022-12-07T03:36:35;12.70;;;4.85;;
24485;SDS011;13449;49.374;8.584;2022-12-07T03:42:00;13.93;;;5.25;;
24485;SDS011;13449;49.374;8.584;2022-12-07T03:44:32;10.27;;;4.70;;
24485;SDS011;13449;49.374;8.584;2022-12-07T03:52:44;10.60;;;4.97;;
24485;SDS011;13449;49.374;8.584;2022-12-07T03:55:29;10.63;;;5.32;;
24485;SDS011;13449;49.374;8.584;2022-12-07T03:57:59;8.20;;;3.97;;
24485;SDS011;13449;49.374;8.584;2022-12-07T04:00:30;13.60;;;4.82;;
24485;SDS011;13449;49.374;8.584;2022-12-07T04:02:56;9.60;;;4.60;;
24485;SDS011;13449;49.374;8.584;2022-12-07T04:05:25;9.18;;;4.50;;
24485;SDS011;13449;49.374;8.584;2022-12-07T04:07:52;14.30;;;5.65;;
24485;SDS011;13449;49.374;8.584;2022-12-07T04:10:21;6.57;;;3.70;;
24485;SDS011;13449;49.374;8.584;2022-12-07T04:12:47;13.95;;;5.70;;
24485;SDS011;13449;49.374;8.584;2022-12-07T04:15:14;10.02;;;5.13;;
24485;SDS011;13449;49.374;8.584;2022-12-07T04:17:45;10.87;;;5.30;;
24485;SDS011;13449;49.374;8.584;2022-12-07T04:20:12;6.72;;;3.50;;
24485;SDS011;13449;49.374;8.584;2022-12-07T04:22:39;11.68;;;5.15;;
24485;SDS011;13449;49.374;8.584;2022-12-07T04:25:05;10.63;;;5.40;;
24485;SDS011;13449;49.374;8.584;2022-12-07T04:27:32;12.88;;;6.32;;
24485;SDS011;13449;49.374;8.584;2022-12-07T04:29:58;13.18;;;6.00;;
24485;SDS011;13449;49.374;8.584;2022-12-07T04:32:26;17.10;;;6.03;;
24485;SDS011;13449;49.374;8.584;2022-12-07T04:34:55;10.98;;;5.13;;
24485;SDS011;13449;49.374;8.584;2022-12-07T04:37:22;12.38;;;5.53;;
24485;SDS011;13449;49.374;8.584;2022-12-07T04:39:51;12.45;;;6.00;;
24485;SDS011;13449;49.374;8.584;2022-12-07T04:42:20;10.82;;;5.72;;
24485;SDS011;13449;49.374;8.584;2022-12-07T04:44:49;13.40;;;6.53;;
24485;SDS011;13449;49.374;8.584;2022-12-07T04:47:17;12.07;;;4.95;;
24485;SDS011;13449;49.374;8.584;2022-12-07T04:49:43;13.27;;;5.90;;
24485;SDS011;13449;49.374;8.584;2022-12-07T04:52:10;11.50;;;5.65;;
24485;SDS011;13449;49.374;8.584;2022-12-07T04:54:36;10.07;;;5.38;;
24485;SDS011;13449;49.374;8.584;2022-12-07T04:57:05;11.82;;;6.55;;
24485;SDS011;13449;49.374;8.584;2022-12-07T04:59:31;8.05;;;4.35;;
24485;SDS011;13449;49.374;8.584;2022-12-07T05:01:58;8.40;;;4.13;;
24485;SDS011;13449;49.374;8.584;2022-12-07T05:04:24;17.20;;;6.80;;
24485;SDS011;13449;49.374;8.584;2022-12-07T05:06:56;16.40;;;7.25;;
24485;SDS011;13449;49.374;8.584;2022-12-07T05:09:22;12.35;;;5.65;;
24485;SDS011;13449;49.374;8.584;2022-12-07T05:11:49;10.13;;;5.07;;
24485;SDS011;13449;49.374;8.584;2022-12-07T05:14:19;14.48;;;6.13;;
24485;SDS011;13449;49.374;8.584;2022-12-07T05:16:47;9.45;;;4.57;;
24485;SDS011;13449;49.374;8.584;2022-12-07T05:19:16;10.60;;;4.80;;
24485;SDS011;13449;49.374;8.584;2022-12-07T05:21:45;12.13;;;5.88;;
24485;SDS011;13449;49.374;8.584;2022-12-07T05:24:12;11.77;;;5.95;;
24485;SDS011;13449;49.374;8.584;2022-12-07T05:26:40;14.20;;;6.18;;
24485;SDS011;13449;49.374;8.584;2022-12-07T05:29:07;12.75;;;5.90;;
24485;SDS011;13449;49.374;8.584;2022-12-07T05:31:36;9.70;;;5.55;;
24485;SDS011;13449;49.374;8.584;2022-12-07T05:34:02;16.20;;;7.63;;
24485;SDS011;13449;49.374;8.584;2022-12-07T05:36:29;16.52;;;7.00;;
24485;SDS011;13449;49.374;8.584;2022-12-07T05:38:57;16.73;;;7.38;;
24485;SDS011;13449;49.374;8.584;2022-12-07T05:41:24;14.38;;;6.28;;
24485;SDS011;13449;49.374;8.584;2022-12-07T05:44:12;12.55;;;6.32;;
24485;SDS011;13449;49.374;8.584;2022-12-07T05:46:41;10.35;;;5.53;;
24485;SDS011;13449;49.374;8.584;2022-12-07T05:49:08;14.45;;;5.05;;
24485;SDS011;13449;49.374;8.584;2022-12-07T05:51:34;11.57;;;5.80;;
24485;SDS011;13449;49.374;8.584;2022-12-07T05:54:01;17.02;;;7.20;;
24485;SDS011;13449;49.374;8.584;2022-12-07T05:56:27;20.20;;;8.88;;
24485;SDS011;13449;49.374;8.584;2022-12-07T05:58:54;17.67;;;8.10;;
24485;SDS011;13449;49.374;8.584;2022-12-07T06:01:39;17.83;;;7.03;;
24485;SDS011;13449;49.374;8.584;2022-12-07T06:04:08;15.07;;;7.15;;
24485;SDS011;13449;49.374;8.584;2022-12-07T06:06:34;12.25;;;6.13;;
24485;SDS011;13449;49.374;8.584;2022-12-07T06:09:01;13.93;;;6.80;;
24485;SDS011;13449;49.374;8.584;2022-12-07T06:11:28;15.90;;;7.40;;
24485;SDS011;13449;49.374;8.584;2022-12-07T06:14:13;14.05;;;6.13;;
24485;SDS011;13449;49.374;8.584;2022-12-07T06:16:40;19.58;;;8.45;;
24485;SDS011;13449;49.374;8.584;2022-12-07T06:19:07;12.85;;;5.13;;
24485;SDS011;13449;49.374;8.584;2022-12-07T06:21:33;12.90;;;6.25;;
24485;SDS011;13449;49.374;8.584;2022-12-07T06:24:00;12.95;;;6.65;;
24485;SDS011;13449;49.374;8.584;2022-12-07T06:26:27;15.45;;;8.27;;
24485;SDS011;13449;49.374;8.584;2022-12-07T06:28:56;19.58;;;6.60;;
24485;SDS011;13449;49.374;8.584;2022-12-07T06:31:23;16.40;;;8.13;;
24485;SDS011;13449;49.374;8.584;2022-12-07T06:33:50;16.10;;;6.88;;
24485;SDS011;13449;49.374;8.584;2022-12-07T06:36:16;14.23;;;7.35;;
24485;SDS011;13449;49.374;8.584;2022-12-07T06:38:49;7.72;;;4.10;;
24485;SDS011;13449;49.374;8.584;2022-12-07T06:41:15;10.30;;;4.93;;
24485;SDS011;13449;49.374;8.584;2022-12-07T06:43:44;15.48;;;8.30;;
24485;SDS011;13449;49.374;8.584;2022-12-07T06:46:10;23.00;;;7.22;;
24485;SDS011;13449;49.374;8.584;2022-12-07T06:48:37;14.45;;;6.95;;
24485;SDS011;13449;49.374;8.584;2022-12-07T06:51:05;17.88;;;8.00;;
24485;SDS011;13449;49.374;8.584;2022-12-07T06:53:32;14.35;;;6.95;;
24485;SDS011;13449;49.374;8.584;2022-12-07T06:55:58;18.85;;;8.18;;
24485;SDS011;13449;49.374;8.584;2022-12-07T06:58:25;21.92;;;7.82;;
24485;SDS011;13449;49.374;8.584;2022-12-07T07:00:51;18.92;;;8.32;;
24485;SDS011;13449;49.374;8.584;2022-12-07T07:03:18;18.17;;;8.90;;
24485;SDS011;13449;49.374;8.584;2022-12-07T07:05:45;21.48;;;8.77;;
24485;SDS011;13449;49.374;8.584;2022-12-07T07:08:14;21.23;;;8.77;;
24485;SDS011;13449;49.374;8.584;2022-12-07T07:10:49;14.70;;;8.07;;
24485;SDS011;13449;49.374;8.584;2022-12-07T07:13:16;21.85;;;9.27;;
24485;SDS011;13449;49.374;8.584;2022-12-07T07:15:42;20.58;;;9.05;;
24485;SDS011;13449;49.374;8.584;2022-12-07T07:18:09;22.77;;;7.78;;
24485;SDS011;13449;49.374;8.584;2022-12-07T07:20:36;15.00;;;7.53;;
24485;SDS011;13449;49.374;8.584;2022-12-07T07:23:02;14.65;;;7.53;;
24485;SDS011;13449;49.374;8.584;2022-12-07T07:25:29;12.18;;;6.53;;
24485;SDS011;13449;49.374;8.584;2022-12-07T07:27:55;17.27;;;7.85;;
24485;SDS011;13449;49.374;8.584;2022-12-07T07:30:22;16.80;;;8.82;;
24485;SDS011;13449;49.374;8.584;2022-12-07T07:32:51;28.20;;;12.43;;
24485;SDS011;13449;49.374;8.584;2022-12-07T07:35:23;30.08;;;12.90;;
24485;SDS011;13449;49.374;8.584;2022-12-07T07:37:55;51.35;;;16.85;;
24485;SDS011;13449;49.374;8.584;2022-12-07T07:40:21;39.95;;;16.67;;
24485;SDS011;13449;49.374;8.584;2022-12-07T07:42:49;38.55;;;14.30;;
24485;SDS011;13449;49.374;8.584;2022-12-07T07:45:18;44.47;;;15.40;;
24485;SDS011;13449;49.374;8.584;2022-12-07T07:47:51;91.18;;;28.38;;
24485;SDS011;13449;49.374;8.584;2022-12-07T07:50:17;76.25;;;27.83;;
24485;SDS011;13449;49.374;8.584;2022-12-07T07:52:45;72.40;;;25.20;;
24485;SDS011;13449;49.374;8.584;2022-12-07T07:55:17;71.10;;;23.33;;
24485;SDS011;13449;49.374;8.584;2022-12-07T07:57:44;43.55;;;16.40;;
24485;SDS011;13449;49.374;8.584;2022-12-07T08:00:19;41.42;;;14.20;;
24485;SDS011;13449;49.374;8.584;2022-12-07T08:02:46;22.92;;;10.73;;
24485;SDS011;13449;49.374;8.584;2022-12-07T08:05:12;32.63;;;12.18;;
24485;SDS011;13449;49.374;8.584;2022-12-07T08:07:40;24.40;;;9.95;;
24485;SDS011;13449;49.374;8.584;2022-12-07T08:10:07;17.33;;;9.10;;
24485;SDS011;13449;49.374;8.584;2022-12-07T08:12:37;18.98;;;8.77;;
24485;SDS011;13449;49.374;8.584;2022-12-07T08:15:26;21.42;;;9.55;;
24485;SDS011;13449;49.374;8.584;2022-12-07T08:17:54;16.77;;;9.00;;
24485;SDS011;13449;49.374;8.584;2022-12-07T08:20:20;20.23;;;9.75;;
24485;SDS011;13449;49.374;8.584;2022-12-07T08:22:47;18.80;;;9.27;;
24485;SDS011;13449;49.374;8.584;2022-12-07T08:25:14;23.55;;;9.02;;
24485;SDS011;13449;49.374;8.584;2022-12-07T08:27:40;16.20;;;7.80;;
24485;SDS011;13449;49.374;8.584;2022-12-07T08:30:07;18.17;;;7.90;;
24485;SDS011;13449;49.374;8.584;2022-12-07T08:32:34;17.85;;;9.23;;
24485;SDS011;13449;49.374;8.584;2022-12-07T08:35:05;14.75;;;7.78;;
24485;SDS011;13449;49.374;8.584;2022-12-07T08:37:34;22.13;;;9.05;;
24485;SDS011;13449;49.374;8.584;2022-12-07T08:40:01;13.00;;;7.60;;
24485;SDS011;13449;49.374;8.584;2022-12-07T08:42:29;11.50;;;6.82;;
24485;SDS011;13449;49.374;8.584;2022-12-07T08:45:04;19.27;;;9.13;;
24485;SDS011;13449;49.374;8.584;2022-12-07T08:47:33;20.50;;;9.50;;
24485;SDS011;13449;49.374;8.584;2022-12-07T08:50:03;16.40;;;8.20;;
24485;SDS011;13449;49.374;8.584;2022-12-07T08:52:38;19.17;;;8.13;;
24485;SDS011;13449;49.374;8.584;2022-12-07T08:55:06;17.33;;;8.32;;
24485;SDS011;13449;49.374;8.584;2022-12-07T08:57:33;17.67;;;9.65;;
24485;SDS011;13449;49.374;8.584;2022-12-07T09:00:02;27.65;;;9.95;;
24485;SDS011;13449;49.374;8.584;2022-12-07T09:02:31;23.95;;;9.57;;
24485;SDS011;13449;49.374;8.584;2022-12-07T09:04:57;21.25;;;9.07;;
24485;SDS011;13449;49.374;8.584;2022-12-07T09:07:26;23.65;;;10.02;;
24485;SDS011;13449;49.374;8.584;2022-12-07T09:09:55;19.70;;;8.85;;
24485;SDS011;13449;49.374;8.584;2022-12-07T09:12:22;16.08;;;8.30;;
24485;SDS011;13449;49.374;8.584;2022-12-07T09:14:49;17.92;;;9.13;;
24485;SDS011;13449;49.374;8.584;2022-12-07T09:17:15;23.50;;;9.07;;
24485;SDS011;13449;49.374;8.584;2022-12-07T09:19:42;19.50;;;9.80;;
24485;SDS011;13449;49.374;8.584;2022-12-07T09:22:11;25.20;;;10.18;;
24485;SDS011;13449;49.374;8.584;2022-12-07T09:24:38;19.48;;;9.50;;
24485;SDS011;13449;49.374;8.584;2022-12-07T09:27:05;24.08;;;12.48;;
24485;SDS011;13449;49.374;8.584;2022-12-07T09:29:31;20.88;;;10.60;;
24485;SDS011;13449;49.374;8.584;2022-12-07T09:31:57;22.38;;;12.40;;
24485;SDS011;13449;49.374;8.584;2022-12-07T09:34:24;27.88;;;11.05;;
24485;SDS011;13449;49.374;8.584;2022-12-07T09:36:52;28.20;;;11.85;;
24485;SDS011;13449;49.374;8.584;2022-12-07T09:39:19;20.10;;;10.88;;
24485;SDS011;13449;49.374;8.584;2022-12-07T09:41:45;27.67;;;9.93;;
24485;SDS011;13449;49.374;8.584;2022-12-07T09:44:17;28.67;;;13.40;;
24485;SDS011;13449;49.374;8.584;2022-12-07T09:46:50;22.38;;;10.32;;
24485;SDS011;13449;49.374;8.584;2022-12-07T09:49:20;16.63;;;8.75;;
24485;SDS011;13449;49.374;8.584;2022-12-07T09:54:34;19.33;;;8.03;;
24485;SDS011;13449;49.374;8.584;2022-12-07T09:57:02;20.23;;;8.48;;
24485;SDS011;13449;49.374;8.584;2022-12-07T09:59:29;12.90;;;7.10;;
24485;SDS011;13449;49.374;8.584;2022-12-07T10:02:19;15.60;;;7.13;;
24485;SDS011;13449;49.374;8.584;2022-12-07T10:04:48;15.60;;;7.47;;
24485;SDS011;13449;49.374;8.584;2022-12-07T10:07:14;13.90;;;7.60;;
24485;SDS011;13449;49.374;8.584;2022-12-07T10:09:41;16.83;;;8.40;;
24485;SDS011;13449;49.374;8.584;2022-12-07T10:12:11;19.02;;;9.07;;
24485;SDS011;13449;49.374;8.584;2022-12-07T10:14:39;19.92;;;7.85;;
24485;SDS011;13449;49.374;8.584;2022-12-07T10:17:38;15.07;;;8.05;;
24485;SDS011;13449;49.374;8.584;2022-12-07T10:25:30;16.58;;;8.25;;
24485;SDS011;13449;49.374;8.584;2022-12-07T10:30:28;21.45;;;8.98;;
24485;SDS011;13449;49.374;8.584;2022-12-07T10:32:56;15.57;;;7.47;;
24485;SDS011;13449;49.374;8.584;2022-12-07T10:37:57;17.00;;;8.02;;
24485;SDS011;13449;49.374;8.584;2022-12-07T10:40:32;17.42;;;8.00;;
24485;SDS011;13449;49.374;8.584;2022-12-07T10:43:01;20.92;;;7.97;;
24485;SDS011;13449;49.374;8.584;2022-12-07T10:51:38;15.02;;;7.70;;
24485;SDS011;13449;49.374;8.584;2022-12-07T10:54:28;19.02;;;8.27;;
24485;SDS011;13449;49.374;8.584;2022-12-07T11:00:04;23.17;;;8.32;;
24485;SDS011;13449;49.374;8.584;2022-12-07T11:11:16;16.00;;;8.32;;
24485;SDS011;13449;49.374;8.584;2022-12-07T11:13:48;15.10;;;7.15;;
24485;SDS011;13449;49.374;8.584;2022-12-07T11:24:45;16.42;;;8.10;;
24485;SDS011;13449;49.374;8.584;2022-12-07T11:27:24;21.17;;;10.15;;
24485;SDS011;13449;49.374;8.584;2022-12-07T11:30:01;23.92;;;9.52;;
24485;SDS011;13449;49.374;8.584;2022-12-07T11:32:51;19.42;;;7.95;;
24485;SDS011;13449;49.374;8.584;2022-12-07T11:35:34;19.75;;;9.40;;
24485;SDS011;13449;49.374;8.584;2022-12-07T11:40:54;18.42;;;9.38;;
24485;SDS011;13449;49.374;8.584;2022-12-07T11:44:02;15.15;;;7.43;;
24485;SDS011;13449;49.374;8.584;2022-12-07T11:46:43;16.50;;;8.25;;
24485;SDS011;13449;49.374;8.584;2022-12-07T11:49:19;23.63;;;9.30;;
24485;SDS011;13449;49.374;8.584;2022-12-07T11:52:06;15.85;;;7.60;;
24485;SDS011;13449;49.374;8.584;2022-12-07T11:54:43;13.68;;;7.43;;
24485;SDS011;13449;49.374;8.584;2022-12-07T11:57:20;14.25;;;6.80;;
24485;SDS011;13449;49.374;8.584;2022-12-07T12:00:03;11.65;;;6.10;;
24485;SDS011;13449;49.374;8.584;2022-12-07T12:02:44;13.32;;;5.75;;
24485;SDS011;13449;49.374;8.584;2022-12-07T12:05:15;10.73;;;5.60;;
24485;SDS011;13449;49.374;8.584;2022-12-07T12:07:44;7.90;;;4.50;;
24485;SDS011;13449;49.374;8.584;2022-12-07T12:13:24;6.07;;;3.78;;
24485;SDS011;13449;49.374;8.584;2022-12-07T12:16:44;7.63;;;3.90;;
24485;SDS011;13449;49.374;8.584;2022-12-07T12:22:11;9.60;;;3.15;;
24485;SDS011;13449;49.374;8.584;2022-12-07T12:24:42;5.70;;;2.67;;
24485;SDS011;13449;49.374;8.584;2022-12-07T12:27:19;6.22;;;4.25;;
24485;SDS011;13449;49.374;8.584;2022-12-07T12:29:56;9.90;;;4.50;;
24485;SDS011;13449;49.374;8.584;2022-12-07T12:32:42;9.10;;;4.78;;
24485;SDS011;13449;49.374;8.584;2022-12-07T12:35:22;12.18;;;4.78;;
24485;SDS011;13449;49.374;8.584;2022-12-07T12:38:20;11.32;;;3.13;;
24485;SDS011;13449;49.374;8.584;2022-12-07T12:40:57;5.05;;;3.17;;
24485;SDS011;13449;49.374;8.584;2022-12-07T12:51:44;7.30;;;3.33;;
24485;SDS011;13449;49.374;8.584;2022-12-07T13:25:59;3.72;;;1.80;;
24485;SDS011;13449;49.374;8.584;2022-12-07T13:28:32;7.25;;;2.88;;
24485;SDS011;13449;49.374;8.584;2022-12-07T13:31:13;7.90;;;2.88;;
24485;SDS011;13449;49.374;8.584;2022-12-07T13:36:17;8.00;;;3.13;;
24485;SDS011;13449;49.374;8.584;2022-12-07T13:38:49;7.68;;;2.65;;
24485;SDS011;13449;49.374;8.584;2022-12-07T13:41:19;6.72;;;2.83;;
24485;SDS011;13449;49.374;8.584;2022-12-07T13:43:51;10.88;;;3.42;;
24485;SDS011;13449;49.374;8.584;2022-12-07T13:46:25;31.27;;;10.20;;
24485;SDS011;13449;49.374;8.584;2022-12-07T13:49:00;17.80;;;6.88;;
24485;SDS011;13449;49.374;8.584;2022-12-07T13:51:27;16.48;;;7.32;;
24485;SDS011;13449;49.374;8.584;2022-12-07T13:54:00;12.90;;;4.80;;
24485;SDS011;13449;49.374;8.584;2022-12-07T13:56:35;12.45;;;6.45;;
24485;SDS011;13449;49.374;8.584;2022-12-07T13:59:10;12.02;;;6.32;;
24485;SDS011;13449;49.374;8.584;2022-12-07T14:01:42;10.60;;;4.85;;
24485;SDS011;13449;49.374;8.584;2022-12-07T14:06:53;11.93;;;5.57;;
24485;SDS011;13449;49.374;8.584;2022-12-07T14:11:51;14.15;;;5.43;;
24485;SDS011;13449;49.374;8.584;2022-12-07T14:14:20;10.30;;;5.70;;
24485;SDS011;13449;49.374;8.584;2022-12-07T14:16:57;16.35;;;5.93;;
24485;SDS011;13449;49.374;8.584;2022-12-07T14:19:43;14.82;;;5.63;;
24485;SDS011;13449;49.374;8.584;2022-12-07T14:22:27;13.20;;;5.05;;
24485;SDS011;13449;49.374;8.584;2022-12-07T14:27:59;9.45;;;4.32;;
24485;SDS011;13449;49.374;8.584;2022-12-07T14:30:30;10.95;;;5.05;;
24485;SDS011;13449;49.374;8.584;2022-12-07T14:32:59;10.30;;;5.47;;
24485;SDS011;13449;49.374;8.584;2022-12-07T14:35:27;12.38;;;5.18;;
24485;SDS011;13449;49.374;8.584;2022-12-07T14:37:58;10.85;;;4.80;;
24485;SDS011;13449;49.374;8.584;2022-12-07T14:40:26;15.80;;;3.72;;
24485;SDS011;13449;49.374;8.584;2022-12-07T14:42:59;11.27;;;4.60;;
24485;SDS011;13449;49.374;8.584;2022-12-07T14:45:30;10.70;;;4.50;;
24485;SDS011;13449;49.374;8.584;2022-12-07T14:48:02;10.05;;;3.80;;
24485;SDS011;13449;49.374;8.584;2022-12-07T14:50:50;11.07;;;4.88;;
24485;SDS011;13449;49.374;8.584;2022-12-07T14:53:39;8.20;;;3.67;;
24485;SDS011;13449;49.374;8.584;2022-12-07T14:56:18;9.60;;;4.95;;
24485;SDS011;13449;49.374;8.584;2022-12-07T14:58:44;8.15;;;4.55;;
24485;SDS011;13449;49.374;8.584;2022-12-07T15:01:14;6.25;;;3.90;;
24485;SDS011;13449;49.374;8.584;2022-12-07T15:03:42;11.00;;;4.97;;
24485;SDS011;13449;49.374;8.584;2022-12-07T15:06:10;10.43;;;4.82;;
24485;SDS011;13449;49.374;8.584;2022-12-07T15:08:40;13.10;;;5.20;;
24485;SDS011;13449;49.374;8.584;2022-12-07T15:11:09;11.10;;;4.13;;
24485;SDS011;13449;49.374;8.584;2022-12-07T15:13:39;22.45;;;6.38;;
24485;SDS011;13449;49.374;8.584;2022-12-07T15:16:24;12.68;;;5.68;;
24485;SDS011;13449;49.374;8.584;2022-12-07T15:18:53;14.05;;;5.93;;
24485;SDS011;13449;49.374;8.584;2022-12-07T15:21:40;16.58;;;7.88;;
24485;SDS011;13449;49.374;8.584;2022-12-07T15:24:10;18.83;;;6.43;;
24485;SDS011;13449;49.374;8.584;2022-12-07T15:26:40;10.40;;;5.47;;
24485;SDS011;13449;49.374;8.584;2022-12-07T15:29:07;12.35;;;6.10;;
24485;SDS011;13449;49.374;8.584;2022-12-07T15:31:34;9.80;;;4.82;;
24485;SDS011;13449;49.374;8.584;2022-12-07T15:34:21;15.35;;;7.38;;
24485;SDS011;13449;49.374;8.584;2022-12-07T15:36:51;13.98;;;6.95;;
24485;SDS011;13449;49.374;8.584;2022-12-07T15:39:17;20.38;;;9.43;;
24485;SDS011;13449;49.374;8.584;2022-12-07T15:41:44;11.55;;;6.20;;
24485;SDS011;13449;49.374;8.584;2022-12-07T15:44:11;12.85;;;6.57;;
24485;SDS011;13449;49.374;8.584;2022-12-07T15:46:57;11.88;;;5.40;;
24485;SDS011;13449;49.374;8.584;2022-12-07T15:49:24;11.93;;;6.05;;
24485;SDS011;13449;49.374;8.584;2022-12-07T15:51:50;10.88;;;6.53;;
24485;SDS011;13449;49.374;8.584;2022-12-07T15:54:23;14.75;;;6.43;;
24485;SDS011;13449;49.374;8.584;2022-12-07T15:56:54;14.65;;;6.68;;
24485;SDS011;13449;49.374;8.584;2022-12-07T15:59:21;13.02;;;5.70;;
24485;SDS011;13449;49.374;8.584;2022-12-07T16:01:48;9.52;;;5.00;;
24485;SDS011;13449;49.374;8.584;2022-12-07T16:04:15;16.75;;;6.05;;
24485;SDS011;13449;49.374;8.584;2022-12-07T16:06:41;11.90;;;6.43;;
24485;SDS011;13449;49.374;8.584;2022-12-07T16:09:08;11.73;;;5.47;;
24485;SDS011;13449;49.374;8.584;2022-12-07T16:11:39;17.27;;;6.22;;
24485;SDS011;13449;49.374;8.584;2022-12-07T16:14:05;15.48;;;6.72;;
24485;SDS011;13449;49.374;8.584;2022-12-07T16:16:32;12.07;;;5.47;;
24485;SDS011;13449;49.374;8.584;2022-12-07T16:18:58;10.57;;;4.90;;
24485;SDS011;13449;49.374;8.584;2022-12-07T16:21:25;8.45;;;4.57;;
24485;SDS011;13449;49.374;8.584;2022-12-07T16:23:52;8.35;;;4.47;;
24485;SDS011;13449;49.374;8.584;2022-12-07T16:26:19;10.10;;;5.50;;
24485;SDS011;13449;49.374;8.584;2022-12-07T16:28:51;9.35;;;4.50;;
24485;SDS011;13449;49.374;8.584;2022-12-07T16:31:20;11.77;;;6.00;;
24485;SDS011;13449;49.374;8.584;2022-12-07T16:33:50;15.45;;;5.65;;
24485;SDS011;13449;49.374;8.584;2022-12-07T16:36:18;20.02;;;4.80;;
24485;SDS011;13449;49.374;8.584;2022-12-07T16:39:05;10.65;;;5.18;;
24485;SDS011;13449;49.374;8.584;2022-12-07T16:41:32;10.60;;;5.22;;
24485;SDS011;13449;49.374;8.584;2022-12-07T16:44:03;12.60;;;5.97;;
24485;SDS011;13449;49.374;8.584;2022-12-07T16:48:58;12.02;;;5.63;;
24485;SDS011;13449;49.374;8.584;2022-12-07T16:51:25;32.80;;;10.77;;
24485;SDS011;13449;49.374;8.584;2022-12-07T16:53:52;16.00;;;7.03;;
24485;SDS011;13449;49.374;8.584;2022-12-07T16:56:19;14.88;;;6.93;;
24485;SDS011;13449;49.374;8.584;2022-12-07T16:58:46;12.63;;;5.55;;
24485;SDS011;13449;49.374;8.584;2022-12-07T17:01:17;13.35;;;5.60;;
24485;SDS011;13449;49.374;8.584;2022-12-07T17:03:53;16.88;;;7.72;;
24485;SDS011;13449;49.374;8.584;2022-12-07T17:06:21;16.48;;;8.43;;
24485;SDS011;13449;49.374;8.584;2022-12-07T17:08:51;19.17;;;8.10;;
24485;SDS011;13449;49.374;8.584;2022-12-07T17:11:36;11.65;;;5.63;;
24485;SDS011;13449;49.374;8.584;2022-12-07T17:14:03;14.05;;;6.38;;